Airfield :
LOGIN :

Register | Disclaimer

   EN    FR    IT 

 










Legend :    VFR   Marginal VFR   IFR   Intensive IFR   Very Intensive IFR
Visi :
Ceiling :
>= 8 km
>= 3000ft
5 to 8 km
1000 to 3000 ft
1500m to 5 km
500 to 1000 ft
800 to 1500m
200 to 500 ft
< 800m
< 200 ft
Symbols :   Thunderstorms  Fog  Heavy snow  Heavy precipitations  Wind > 20 kt
SIGMETs :     Misc.  Thunderstorms  Icing  Turbulence  Mountain Waves  Volcanic Ashes







- Airport Elevation : 458 ft
- Download approach charts


LFSI - St-Dizier

CURRENT METAR :
  • 101230Z AUTO 30010KT 9999 BKN017/// BKN022/// OVC050/// ///TCU 09/04 Q1026

EXPIRED METARs :
  • 101200Z AUTO 27009KT 9999 BKN015 BKN020 BKN027 08/05 Q1026
  • 101130Z AUTO 27009KT 9999 BKN014 BKN023 OVC047 08/06 Q1026
  • 101100Z AUTO 27009KT 9999 FEW012 SCT021 BKN027 08/05 Q1026
  • 101030Z AUTO 27009KT 9999 FEW009/// SCT017/// BKN031/// ///CB 08/06 Q1026
  • 101000Z AUTO 27008KT 9999 BKN010/// BKN015/// OVC021/// ///TCU 07/06 Q1026

TAF TAF LFSI
Valid from the 10 at 09:00 until the 11 at 09:00 UTC


100800Z 1009/1109 26007KT 9999 BKN015 BKN040
TEMPO 1009/1012 BKN005
No reported NOTAMs for that airfield.



MET'MAP, your aeronautical weather chart ! - Copyright ORBIFLY December 2007 - Disclaimer

ORBIFLY MET'MAP TEAM :

Programming & Development : Alexandra Zaïnal
Concept & Development : Baudouin d'Aumeries
Co-Development & Prog : Marc-Olivier Méhu
Technical & hardware support : Manuel Goepfert

Contact : metmap@orbifly.com




SOURCES & CREDITS :

   NOAA